sensor_id;sensor_type;location;lat;lon;timestamp;pressure;altitude;pressure_sealevel;temperature;humidity
1401;BME280;46518;48.842;8.926;2023-03-13T00:01:25;96675.63;;;8.50;81.42
1401;BME280;46518;48.842;8.926;2023-03-13T00:03:54;96671.31;;;8.61;80.96
1401;BME280;46518;48.842;8.926;2023-03-13T00:06:23;96665.81;;;8.62;80.64
1401;BME280;46518;48.842;8.926;2023-03-13T00:08:53;96666.94;;;8.67;80.31
1401;BME280;46518;48.842;8.926;2023-03-13T00:11:22;96672.78;;;8.52;81.14
1401;BME280;46518;48.842;8.926;2023-03-13T00:13:53;96663.13;;;8.57;80.93
1401;BME280;46518;48.842;8.926;2023-03-13T00:16:23;96662.91;;;8.59;80.97
1401;BME280;46518;48.842;8.926;2023-03-13T00:18:54;96653.75;;;8.61;80.17
1401;BME280;46518;48.842;8.926;2023-03-13T00:21:24;96657.53;;;8.71;80.58
1401;BME280;46518;48.842;8.926;2023-03-13T00:23:53;96654.66;;;8.50;81.27
1401;BME280;46518;48.842;8.926;2023-03-13T00:26:23;96654.59;;;8.67;80.63
1401;BME280;46518;48.842;8.926;2023-03-13T00:28:52;96648.25;;;8.63;80.69
1401;BME280;46518;48.842;8.926;2023-03-13T00:31:23;96648.44;;;8.56;81.21
1401;BME280;46518;48.842;8.926;2023-03-13T00:33:54;96650.22;;;8.73;80.21
1401;BME280;46518;48.842;8.926;2023-03-13T00:36:24;96644.41;;;8.71;80.18
1401;BME280;46518;48.842;8.926;2023-03-13T00:38:54;96636.25;;;8.67;80.17
1401;BME280;46518;48.842;8.926;2023-03-13T00:41:23;96632.63;;;8.73;79.87
1401;BME280;46518;48.842;8.926;2023-03-13T00:43:52;96624.81;;;8.78;79.93
1401;BME280;46518;48.842;8.926;2023-03-13T00:46:23;96626.84;;;8.71;80.01
1401;BME280;46518;48.842;8.926;2023-03-13T00:48:52;96625.38;;;8.80;79.92
1401;BME280;46518;48.842;8.926;2023-03-13T00:51:22;96615.25;;;8.89;79.47
1401;BME280;46518;48.842;8.926;2023-03-13T00:53:53;96620.72;;;8.88;79.42
1401;BME280;46518;48.842;8.926;2023-03-13T00:56:22;96612.56;;;8.84;79.24
1401;BME280;46518;48.842;8.926;2023-03-13T00:58:50;96616.75;;;8.85;79.73
1401;BME280;46518;48.842;8.926;2023-03-13T01:01:20;96608.72;;;8.92;79.14
1401;BME280;46518;48.842;8.926;2023-03-13T01:03:51;96604.47;;;8.91;78.98
1401;BME280;46518;48.842;8.926;2023-03-13T01:06:22;96599.25;;;8.91;79.49
1401;BME280;46518;48.842;8.926;2023-03-13T01:08:51;96601.03;;;8.85;79.69
1401;BME280;46518;48.842;8.926;2023-03-13T01:11:21;96594.16;;;8.79;79.86
1401;BME280;46518;48.842;8.926;2023-03-13T01:13:53;96591.88;;;8.88;79.70
1401;BME280;46518;48.842;8.926;2023-03-13T01:16:22;96588.22;;;8.89;79.67
1401;BME280;46518;48.842;8.926;2023-03-13T01:18:54;96584.00;;;8.88;79.61
1401;BME280;46518;48.842;8.926;2023-03-13T01:21:23;96579.78;;;8.87;79.34
1401;BME280;46518;48.842;8.926;2023-03-13T01:23:52;96571.88;;;8.81;79.52
1401;BME280;46518;48.842;8.926;2023-03-13T01:26:22;96563.22;;;8.86;79.94
1401;BME280;46518;48.842;8.926;2023-03-13T01:28:50;96558.00;;;8.86;78.97
1401;BME280;46518;48.842;8.926;2023-03-13T01:31:23;96553.00;;;8.84;80.11
1401;BME280;46518;48.842;8.926;2023-03-13T01:33:55;96551.16;;;8.85;79.41
1401;BME280;46518;48.842;8.926;2023-03-13T01:36:25;96546.75;;;8.91;79.45
1401;BME280;46518;48.842;8.926;2023-03-13T01:38:56;96543.06;;;8.87;79.61
1401;BME280;46518;48.842;8.926;2023-03-13T01:41:26;96541.31;;;8.97;79.58
1401;BME280;46518;48.842;8.926;2023-03-13T01:43:56;96529.13;;;8.86;80.00
1401;BME280;46518;48.842;8.926;2023-03-13T01:46:30;96523.94;;;8.91;79.50
1401;BME280;46518;48.842;8.926;2023-03-13T01:49:04;96527.66;;;8.95;79.43
1401;BME280;46518;48.842;8.926;2023-03-13T01:51:43;96520.81;;;8.94;79.41
1401;BME280;46518;48.842;8.926;2023-03-13T01:54:15;96514.00;;;8.98;79.15
1401;BME280;46518;48.842;8.926;2023-03-13T01:56:48;96505.31;;;8.93;79.27
1401;BME280;46518;48.842;8.926;2023-03-13T01:59:21;96501.31;;;8.85;80.10
1401;BME280;46518;48.842;8.926;2023-03-13T02:01:52;96499.78;;;8.89;79.64
1401;BME280;46518;48.842;8.926;2023-03-13T02:04:26;96495.31;;;8.90;80.12
1401;BME280;46518;48.842;8.926;2023-03-13T02:07:00;96487.78;;;8.98;79.37
1401;BME280;46518;48.842;8.926;2023-03-13T02:09:30;96485.97;;;8.99;79.13
1401;BME280;46518;48.842;8.926;2023-03-13T02:12:03;96483.84;;;9.01;79.10
1401;BME280;46518;48.842;8.926;2023-03-13T02:14:35;96481.22;;;9.01;79.33
1401;BME280;46518;48.842;8.926;2023-03-13T02:17:06;96481.00;;;9.02;79.79
1401;BME280;46518;48.842;8.926;2023-03-13T02:19:39;96490.19;;;9.05;79.51
1401;BME280;46518;48.842;8.926;2023-03-13T02:22:15;96478.94;;;9.10;79.62
1401;BME280;46518;48.842;8.926;2023-03-13T02:24:51;96471.38;;;9.18;79.15
1401;BME280;46518;48.842;8.926;2023-03-13T02:27:25;96473.50;;;9.16;79.20
1401;BME280;46518;48.842;8.926;2023-03-13T02:29:53;96465.88;;;9.15;79.52
1401;BME280;46518;48.842;8.926;2023-03-13T02:32:22;96467.75;;;9.19;79.83
1401;BME280;46518;48.842;8.926;2023-03-13T02:35:00;96460.91;;;9.23;79.28
1401;BME280;46518;48.842;8.926;2023-03-13T02:37:30;96452.59;;;9.32;78.84
1401;BME280;46518;48.842;8.926;2023-03-13T02:40:03;96446.06;;;9.34;79.32
1401;BME280;46518;48.842;8.926;2023-03-13T02:42:37;96447.63;;;9.35;79.24
1401;BME280;46518;48.842;8.926;2023-03-13T02:45:07;96439.50;;;9.37;79.87
1401;BME280;46518;48.842;8.926;2023-03-13T02:47:36;96429.81;;;9.42;79.89
1401;BME280;46518;48.842;8.926;2023-03-13T02:50:10;96422.19;;;9.46;79.69
1401;BME280;46518;48.842;8.926;2023-03-13T02:52:41;96416.72;;;9.53;80.11
1401;BME280;46518;48.842;8.926;2023-03-13T02:55:14;96420.66;;;9.50;79.99
1401;BME280;46518;48.842;8.926;2023-03-13T02:57:45;96411.44;;;9.47;80.59
1401;BME280;46518;48.842;8.926;2023-03-13T03:00:14;96399.59;;;9.40;81.28
1401;BME280;46518;48.842;8.926;2023-03-13T03:02:44;96403.31;;;9.49;81.59
1401;BME280;46518;48.842;8.926;2023-03-13T03:05:13;96395.41;;;9.44;82.67
1401;BME280;46518;48.842;8.926;2023-03-13T03:07:41;96394.13;;;9.52;83.38
1401;BME280;46518;48.842;8.926;2023-03-13T03:10:10;96387.81;;;9.47;83.71
1401;BME280;46518;48.842;8.926;2023-03-13T03:12:40;96387.59;;;9.59;84.21
1401;BME280;46518;48.842;8.926;2023-03-13T03:15:11;96381.84;;;9.62;85.26
1401;BME280;46518;48.842;8.926;2023-03-13T03:17:43;96384.81;;;9.81;84.58
1401;BME280;46518;48.842;8.926;2023-03-13T03:20:12;96377.19;;;9.85;85.43
1401;BME280;46518;48.842;8.926;2023-03-13T03:22:42;96382.75;;;9.99;84.97
1401;BME280;46518;48.842;8.926;2023-03-13T03:25:10;96373.03;;;10.04;85.64
1401;BME280;46518;48.842;8.926;2023-03-13T03:27:38;96384.66;;;10.19;84.91
1401;BME280;46518;48.842;8.926;2023-03-13T03:30:09;96386.75;;;10.22;84.67
1401;BME280;46518;48.842;8.926;2023-03-13T03:32:40;96385.47;;;10.34;84.89
1401;BME280;46518;48.842;8.926;2023-03-13T03:35:08;96383.91;;;10.28;85.29
1401;BME280;46518;48.842;8.926;2023-03-13T03:37:36;96377.59;;;10.40;85.00
1401;BME280;46518;48.842;8.926;2023-03-13T03:40:05;96378.31;;;10.25;85.97
1401;BME280;46518;48.842;8.926;2023-03-13T03:42:34;96378.38;;;10.40;85.50
1401;BME280;46518;48.842;8.926;2023-03-13T03:49:48;96385.50;;;10.55;85.91
1401;BME280;46518;48.842;8.926;2023-03-13T03:52:16;96389.44;;;10.52;85.99
1401;BME280;46518;48.842;8.926;2023-03-13T03:54:44;96380.22;;;10.34;87.22
1401;BME280;46518;48.842;8.926;2023-03-13T03:57:13;96383.63;;;10.40;87.38
1401;BME280;46518;48.842;8.926;2023-03-13T03:59:44;96381.00;;;10.40;88.65
1401;BME280;46518;48.842;8.926;2023-03-13T04:02:12;96374.19;;;10.39;88.69
1401;BME280;46518;48.842;8.926;2023-03-13T04:04:41;96381.53;;;10.57;87.84
1401;BME280;46518;48.842;8.926;2023-03-13T04:07:15;96374.19;;;10.65;87.55
1401;BME280;46518;48.842;8.926;2023-03-13T04:09:43;96361.03;;;10.60;87.94
1401;BME280;46518;48.842;8.926;2023-03-13T04:12:20;96362.59;;;10.50;88.69
1401;BME280;46518;48.842;8.926;2023-03-13T04:14:50;96366.03;;;10.51;89.25
1401;BME280;46518;48.842;8.926;2023-03-13T04:17:19;96364.44;;;10.55;89.27
1401;BME280;46518;48.842;8.926;2023-03-13T04:19:48;96354.97;;;10.59;89.27
1401;BME280;46518;48.842;8.926;2023-03-13T04:22:17;96356.00;;;10.48;90.34
1401;BME280;46518;48.842;8.926;2023-03-13T04:24:49;96343.16;;;10.56;90.58
1401;BME280;46518;48.842;8.926;2023-03-13T04:27:19;96357.31;;;10.55;90.40
1401;BME280;46518;48.842;8.926;2023-03-13T04:29:49;96345.50;;;10.43;91.54
1401;BME280;46518;48.842;8.926;2023-03-13T04:32:40;96337.06;;;10.41;91.69
1401;BME280;46518;48.842;8.926;2023-03-13T04:35:22;96341.03;;;10.48;91.86
1401;BME280;46518;48.842;8.926;2023-03-13T04:38:14;96341.81;;;10.44;91.82
1401;BME280;46518;48.842;8.926;2023-03-13T04:40:54;96338.91;;;10.35;92.79
1401;BME280;46518;48.842;8.926;2023-03-13T04:43:48;96333.94;;;10.39;93.04
1401;BME280;46518;48.842;8.926;2023-03-13T04:46:45;96331.81;;;10.41;93.63
1401;BME280;46518;48.842;8.926;2023-03-13T04:49:37;96329.72;;;10.38;94.15
1401;BME280;46518;48.842;8.926;2023-03-13T04:52:13;96323.91;;;10.41;94.09
1401;BME280;46518;48.842;8.926;2023-03-13T04:55:06;96318.16;;;10.39;94.56
1401;BME280;46518;48.842;8.926;2023-03-13T04:58:01;96322.34;;;10.45;93.87
1401;BME280;46518;48.842;8.926;2023-03-13T05:00:41;96322.34;;;10.45;94.16
1401;BME280;46518;48.842;8.926;2023-03-13T05:03:27;96320.25;;;10.52;94.10
1401;BME280;46518;48.842;8.926;2023-03-13T05:06:15;96326.56;;;10.51;93.83
1401;BME280;46518;48.842;8.926;2023-03-13T05:09:05;96322.34;;;10.55;93.81
1401;BME280;46518;48.842;8.926;2023-03-13T05:11:58;96315.75;;;10.63;93.57
1401;BME280;46518;48.842;8.926;2023-03-13T05:14:42;96324.97;;;10.65;93.40
1401;BME280;46518;48.842;8.926;2023-03-13T05:17:29;96334.69;;;10.75;94.16
1401;BME280;46518;48.842;8.926;2023-03-13T05:20:19;96326.78;;;10.80;92.69
1401;BME280;46518;48.842;8.926;2023-03-13T05:23:05;96320.50;;;10.81;92.41
1401;BME280;46518;48.842;8.926;2023-03-13T05:25:36;96323.13;;;10.76;93.19
1401;BME280;46518;48.842;8.926;2023-03-13T05:28:23;96317.84;;;10.91;92.25
1401;BME280;46518;48.842;8.926;2023-03-13T05:31:08;96307.31;;;10.86;92.21
1401;BME280;46518;48.842;8.926;2023-03-13T05:34:09;96303.38;;;10.78;92.98
1401;BME280;46518;48.842;8.926;2023-03-13T05:37:00;96305.22;;;10.73;93.33
1401;BME280;46518;48.842;8.926;2023-03-13T05:39:31;96306.78;;;10.84;93.35
1401;BME280;46518;48.842;8.926;2023-03-13T05:42:23;96303.38;;;10.89;93.01
1401;BME280;46518;48.842;8.926;2023-03-13T05:45:18;96302.06;;;10.81;95.03
1401;BME280;46518;48.842;8.926;2023-03-13T05:47:47;96300.75;;;10.78;95.83
1401;BME280;46518;48.842;8.926;2023-03-13T05:50:33;96307.56;;;10.95;94.64
1401;BME280;46518;48.842;8.926;2023-03-13T05:53:02;96289.97;;;10.75;95.46
1401;BME280;46518;48.842;8.926;2023-03-13T05:55:49;96309.16;;;10.75;94.93
1401;BME280;46518;48.842;8.926;2023-03-13T05:58:35;96311.78;;;10.80;94.63
1401;BME280;46518;48.842;8.926;2023-03-13T06:01:25;96317.06;;;10.80;94.73
1401;BME280;46518;48.842;8.926;2023-03-13T06:04:00;96316.28;;;10.75;95.22
1401;BME280;46518;48.842;8.926;2023-03-13T06:06:31;96309.97;;;10.81;94.74
1401;BME280;46518;48.842;8.926;2023-03-13T06:08:59;96303.09;;;10.85;94.30
1401;BME280;46518;48.842;8.926;2023-03-13T06:11:30;96293.34;;;10.86;93.93
1401;BME280;46518;48.842;8.926;2023-03-13T06:13:58;96296.78;;;10.91;93.61
1401;BME280;46518;48.842;8.926;2023-03-13T06:16:34;96294.38;;;10.95;93.74
1401;BME280;46518;48.842;8.926;2023-03-13T06:19:17;96292.00;;;11.04;93.40
1401;BME280;46518;48.842;8.926;2023-03-13T06:21:45;96286.22;;;11.01;93.33
1401;BME280;46518;48.842;8.926;2023-03-13T06:24:13;96290.16;;;11.09;92.82
1401;BME280;46518;48.842;8.926;2023-03-13T06:26:41;96281.41;;;11.19;92.27
1401;BME280;46518;48.842;8.926;2023-03-13T06:29:09;96286.44;;;11.10;92.61
1401;BME280;46518;48.842;8.926;2023-03-13T06:31:39;96283.53;;;11.17;93.01
1401;BME280;46518;48.842;8.926;2023-03-13T06:34:07;96287.16;;;11.36;91.25
1401;BME280;46518;48.842;8.926;2023-03-13T06:36:37;96285.53;;;11.40;91.14
1401;BME280;46518;48.842;8.926;2023-03-13T06:39:05;96293.78;;;11.29;92.57
1401;BME280;46518;48.842;8.926;2023-03-13T06:41:34;96296.84;;;11.46;92.35
1401;BME280;46518;48.842;8.926;2023-03-13T06:44:02;96292.38;;;11.47;91.97
1401;BME280;46518;48.842;8.926;2023-03-13T06:46:30;96307.47;;;11.31;93.08
1401;BME280;46518;48.842;8.926;2023-03-13T06:49:00;96318.66;;;11.57;91.68
1401;BME280;46518;48.842;8.926;2023-03-13T06:51:30;96319.22;;;11.54;92.60
1401;BME280;46518;48.842;8.926;2023-03-13T06:54:00;96320.63;;;11.36;92.87
1401;BME280;46518;48.842;8.926;2023-03-13T06:56:28;96320.28;;;11.48;93.06
1401;BME280;46518;48.842;8.926;2023-03-13T06:58:56;96322.13;;;11.52;92.39
1401;BME280;46518;48.842;8.926;2023-03-13T07:01:25;96321.91;;;11.43;93.13
1401;BME280;46518;48.842;8.926;2023-03-13T07:03:54;96323.19;;;11.51;93.16
1401;BME280;46518;48.842;8.926;2023-03-13T07:06:24;96336.31;;;11.61;92.71
1401;BME280;46518;48.842;8.926;2023-03-13T07:08:52;96326.00;;;11.65;92.24
1401;BME280;46518;48.842;8.926;2023-03-13T07:11:21;96326.34;;;11.48;93.31
1401;BME280;46518;48.842;8.926;2023-03-13T07:13:49;96321.56;;;11.55;94.04
1401;BME280;46518;48.842;8.926;2023-03-13T07:16:17;96318.72;;;11.47;94.56
1401;BME280;46518;48.842;8.926;2023-03-13T07:18:45;96311.66;;;11.32;95.61
1401;BME280;46518;48.842;8.926;2023-03-13T07:21:13;96314.22;;;11.52;94.93
1401;BME280;46518;48.842;8.926;2023-03-13T07:23:43;96309.00;;;11.42;94.50
1401;BME280;46518;48.842;8.926;2023-03-13T07:26:12;96307.13;;;11.42;94.89
1401;BME280;46518;48.842;8.926;2023-03-13T07:28:43;96316.06;;;11.52;94.64
1401;BME280;46518;48.842;8.926;2023-03-13T07:31:15;96301.81;;;11.53;94.25
1401;BME280;46518;48.842;8.926;2023-03-13T07:33:46;96304.09;;;11.75;93.22
1401;BME280;46518;48.842;8.926;2023-03-13T07:36:15;96303.03;;;11.76;92.31
1401;BME280;46518;48.842;8.926;2023-03-13T07:38:48;96298.47;;;11.92;91.74
1401;BME280;46518;48.842;8.926;2023-03-13T07:41:18;96306.13;;;11.88;91.77
1401;BME280;46518;48.842;8.926;2023-03-13T07:43:46;96301.94;;;11.82;92.03
1401;BME280;46518;48.842;8.926;2023-03-13T07:46:16;96303.53;;;11.78;91.88
1401;BME280;46518;48.842;8.926;2023-03-13T07:48:47;96283.53;;;11.72;92.37
1401;BME280;46518;48.842;8.926;2023-03-13T07:51:18;96294.25;;;11.85;92.24
1401;BME280;46518;48.842;8.926;2023-03-13T07:54:04;96285.03;;;11.88;92.68
1401;BME280;46518;48.842;8.926;2023-03-13T07:56:34;96273.47;;;11.84;91.50
1401;BME280;46518;48.842;8.926;2023-03-13T07:59:03;96281.09;;;11.80;92.49
1401;BME280;46518;48.842;8.926;2023-03-13T08:01:33;96271.59;;;11.84;91.22
1401;BME280;46518;48.842;8.926;2023-03-13T08:04:01;96262.66;;;11.91;92.26
1401;BME280;46518;48.842;8.926;2023-03-13T08:06:33;96249.13;;;11.97;91.39
1401;BME280;46518;48.842;8.926;2023-03-13T08:09:07;96243.59;;;11.99;91.66
1401;BME280;46518;48.842;8.926;2023-03-13T08:11:38;96237.69;;;12.12;90.64
1401;BME280;46518;48.842;8.926;2023-03-13T08:14:07;96249.00;;;12.13;89.58
1401;BME280;46518;48.842;8.926;2023-03-13T08:16:37;96248.66;;;12.24;89.22
1401;BME280;46518;48.842;8.926;2023-03-13T08:19:09;96255.50;;;12.25;88.77
1401;BME280;46518;48.842;8.926;2023-03-13T08:21:38;96246.25;;;12.28;87.75
1401;BME280;46518;48.842;8.926;2023-03-13T08:24:10;96256.91;;;12.47;86.91
1401;BME280;46518;48.842;8.926;2023-03-13T08:26:40;96254.06;;;12.43;87.07
1401;BME280;46518;48.842;8.926;2023-03-13T08:29:10;96260.78;;;12.55;86.99
1401;BME280;46518;48.842;8.926;2023-03-13T08:31:42;96264.50;;;12.54;86.30
1401;BME280;46518;48.842;8.926;2023-03-13T08:34:11;96263.47;;;12.49;86.20
1401;BME280;46518;48.842;8.926;2023-03-13T08:36:40;96272.34;;;12.64;86.69
1401;BME280;46518;48.842;8.926;2023-03-13T08:39:12;96267.00;;;12.69;85.42
1401;BME280;46518;48.842;8.926;2023-03-13T08:41:41;96265.03;;;12.80;85.18
1401;BME280;46518;48.842;8.926;2023-03-13T08:44:10;96261.38;;;13.00;85.20
1401;BME280;46518;48.842;8.926;2023-03-13T08:46:39;96271.19;;;12.99;84.54
1401;BME280;46518;48.842;8.926;2023-03-13T08:49:07;96273.97;;;12.84;85.40
1401;BME280;46518;48.842;8.926;2023-03-13T08:51:36;96274.91;;;12.98;83.63
1401;BME280;46518;48.842;8.926;2023-03-13T08:54:05;96270.50;;;13.12;83.62
1401;BME280;46518;48.842;8.926;2023-03-13T08:56:35;96267.97;;;13.02;84.94
1401;BME280;46518;48.842;8.926;2023-03-13T08:59:04;96259.06;;;12.98;83.68
1401;BME280;46518;48.842;8.926;2023-03-13T09:01:34;96258.81;;;13.19;82.98
1401;BME280;46518;48.842;8.926;2023-03-13T09:04:04;96249.59;;;13.16;81.19
1401;BME280;46518;48.842;8.926;2023-03-13T09:06:33;96258.84;;;13.37;80.56
1401;BME280;46518;48.842;8.926;2023-03-13T09:09:02;96241.78;;;13.30;80.76
1401;BME280;46518;48.842;8.926;2023-03-13T09:11:31;96247.56;;;13.32;80.77
1401;BME280;46518;48.842;8.926;2023-03-13T09:14:02;96239.16;;;13.49;78.63
1401;BME280;46518;48.842;8.926;2023-03-13T09:16:32;96220.72;;;13.44;79.75
1401;BME280;46518;48.842;8.926;2023-03-13T09:19:01;96224.94;;;13.64;79.46
1401;BME280;46518;48.842;8.926;2023-03-13T09:21:30;96239.88;;;13.73;76.72
1401;BME280;46518;48.842;8.926;2023-03-13T09:23:59;96233.66;;;13.83;75.74
1401;BME280;46518;48.842;8.926;2023-03-13T09:26:28;96243.34;;;13.88;74.83
1401;BME280;46518;48.842;8.926;2023-03-13T09:28:57;96251.25;;;13.74;74.02
1401;BME280;46518;48.842;8.926;2023-03-13T09:31:28;96242.19;;;13.61;75.64
1401;BME280;46518;48.842;8.926;2023-03-13T09:33:57;96248.25;;;13.62;77.08
1401;BME280;46518;48.842;8.926;2023-03-13T09:36:26;96250.69;;;13.58;75.76
1401;BME280;46518;48.842;8.926;2023-03-13T09:38:56;96250.19;;;13.56;76.14
1401;BME280;46518;48.842;8.926;2023-03-13T09:41:28;96240.44;;;13.70;76.67
1401;BME280;46518;48.842;8.926;2023-03-13T09:44:04;96236.50;;;13.87;76.96
1401;BME280;46518;48.842;8.926;2023-03-13T09:46:40;96248.38;;;14.08;77.00
1401;BME280;46518;48.842;8.926;2023-03-13T09:49:22;96228.75;;;14.09;75.57
1401;BME280;46518;48.842;8.926;2023-03-13T09:52:01;96236.41;;;14.11;76.10
1401;BME280;46518;48.842;8.926;2023-03-13T09:54:35;96226.84;;;13.96;75.26
1401;BME280;46518;48.842;8.926;2023-03-13T09:57:12;96222.28;;;14.01;75.49
1401;BME280;46518;48.842;8.926;2023-03-13T09:59:46;96237.28;;;13.87;75.73
1401;BME280;46518;48.842;8.926;2023-03-13T10:02:22;96239.25;;;14.14;76.31
1401;BME280;46518;48.842;8.926;2023-03-13T10:04:55;96229.28;;;14.25;76.34
1401;BME280;46518;48.842;8.926;2023-03-13T10:07:26;96223.06;;;14.02;77.16
1401;BME280;46518;48.842;8.926;2023-03-13T10:09:55;96220.56;;;14.24;77.75
1401;BME280;46518;48.842;8.926;2023-03-13T10:12:27;96220.19;;;14.31;75.47
1401;BME280;46518;48.842;8.926;2023-03-13T10:15:22;96226.09;;;14.42;77.03
1401;BME280;46518;48.842;8.926;2023-03-13T10:17:58;96218.94;;;14.42;77.72
1401;BME280;46518;48.842;8.926;2023-03-13T10:20:27;96209.78;;;14.67;77.39
1401;BME280;46518;48.842;8.926;2023-03-13T10:22:58;96213.63;;;14.61;77.46
1401;BME280;46518;48.842;8.926;2023-03-13T10:25:29;96206.34;;;14.67;75.07
1401;BME280;46518;48.842;8.926;2023-03-13T10:27:58;96213.31;;;14.63;75.84
1401;BME280;46518;48.842;8.926;2023-03-13T10:30:28;96204.88;;;14.75;75.61
1401;BME280;46518;48.842;8.926;2023-03-13T10:33:18;96206.16;;;15.19;76.90
1401;BME280;46518;48.842;8.926;2023-03-13T10:35:59;96207.41;;;15.21;73.81
1401;BME280;46518;48.842;8.926;2023-03-13T10:38:32;96200.44;;;15.25;72.52
1401;BME280;46518;48.842;8.926;2023-03-13T10:41:06;96203.31;;;15.15;72.98
1401;BME280;46518;48.842;8.926;2023-03-13T10:43:49;96208.09;;;15.27;72.63
1401;BME280;46518;48.842;8.926;2023-03-13T10:46:26;96194.34;;;15.25;72.85
1401;BME280;46518;48.842;8.926;2023-03-13T10:48:59;96175.44;;;15.18;70.74
1401;BME280;46518;48.842;8.926;2023-03-13T10:51:33;96168.25;;;15.18;70.29
1401;BME280;46518;48.842;8.926;2023-03-13T10:54:13;96189.53;;;15.27;69.73
1401;BME280;46518;48.842;8.926;2023-03-13T10:56:42;96176.25;;;15.41;70.29
1401;BME280;46518;48.842;8.926;2023-03-13T10:59:19;96181.88;;;15.62;70.00
1401;BME280;46518;48.842;8.926;2023-03-13T11:01:49;96172.44;;;15.69;67.90
1401;BME280;46518;48.842;8.926;2023-03-13T11:04:28;96179.50;;;15.96;70.56
1401;BME280;46518;48.842;8.926;2023-03-13T11:07:00;96174.94;;;15.88;69.37
1401;BME280;46518;48.842;8.926;2023-03-13T11:09:29;96180.16;;;16.02;69.41
1401;BME280;46518;48.842;8.926;2023-03-13T11:12:02;96154.03;;;16.18;69.93
1401;BME280;46518;48.842;8.926;2023-03-13T11:14:31;96147.50;;;16.24;70.40
1401;BME280;46518;48.842;8.926;2023-03-13T11:17:03;96159.59;;;16.39;69.28
1401;BME280;46518;48.842;8.926;2023-03-13T11:19:43;96143.56;;;16.53;69.04
1401;BME280;46518;48.842;8.926;2023-03-13T11:22:27;96137.72;;;16.33;65.51
1401;BME280;46518;48.842;8.926;2023-03-13T11:25:03;96140.84;;;16.35;67.98
1401;BME280;46518;48.842;8.926;2023-03-13T11:27:43;96129.41;;;16.26;67.00
1401;BME280;46518;48.842;8.926;2023-03-13T11:30:19;96117.25;;;16.34;64.54
1401;BME280;46518;48.842;8.926;2023-03-13T11:32:52;96110.94;;;16.61;66.42
1401;BME280;46518;48.842;8.926;2023-03-13T11:35:34;96093.19;;;16.79;67.27
1401;BME280;46518;48.842;8.926;2023-03-13T11:38:08;96100.66;;;16.77;63.20
1401;BME280;46518;48.842;8.926;2023-03-13T11:40:43;96094.94;;;16.84;64.10
1401;BME280;46518;48.842;8.926;2023-03-13T11:43:29;96076.94;;;16.80;66.29
1401;BME280;46518;48.842;8.926;2023-03-13T11:46:24;96080.94;;;16.69;63.85
1401;BME280;46518;48.842;8.926;2023-03-13T11:49:24;96068.50;;;16.78;63.16
1401;BME280;46518;48.842;8.926;2023-03-13T11:52:08;96065.09;;;16.95;64.04
1401;BME280;46518;48.842;8.926;2023-03-13T11:54:58;96053.34;;;16.96;61.21
1401;BME280;46518;48.842;8.926;2023-03-13T11:57:34;96047.44;;;17.08;62.91
1401;BME280;46518;48.842;8.926;2023-03-13T12:00:16;96047.22;;;17.39;62.81
1401;BME280;46518;48.842;8.926;2023-03-13T12:02:49;96042.56;;;17.45;61.19
1401;BME280;46518;48.842;8.926;2023-03-13T12:05:20;96032.81;;;17.58;62.90
1401;BME280;46518;48.842;8.926;2023-03-13T12:07:56;96042.34;;;17.67;59.78
1401;BME280;46518;48.842;8.926;2023-03-13T12:10:30;96027.06;;;17.38;61.54
1401;BME280;46518;48.842;8.926;2023-03-13T12:13:03;96008.91;;;17.32;63.67
1401;BME280;46518;48.842;8.926;2023-03-13T12:15:36;96001.72;;;17.41;64.41
1401;BME280;46518;48.842;8.926;2023-03-13T12:18:11;95971.00;;;17.52;60.94
1401;BME280;46518;48.842;8.926;2023-03-13T12:20:46;95981.88;;;17.77;61.38
1401;BME280;46518;48.842;8.926;2023-03-13T12:23:23;95972.41;;;17.58;61.80
1401;BME280;46518;48.842;8.926;2023-03-13T12:25:58;95967.47;;;17.86;59.53
1401;BME280;46518;48.842;8.926;2023-03-13T12:28:34;95959.00;;;17.93;61.15
1401;BME280;46518;48.842;8.926;2023-03-13T12:31:10;95956.84;;;17.86;57.96
1401;BME280;46518;48.842;8.926;2023-03-13T12:33:44;95949.91;;;17.94;59.48
1401;BME280;46518;48.842;8.926;2023-03-13T12:36:17;95932.19;;;17.98;57.93
1401;BME280;46518;48.842;8.926;2023-03-13T12:38:53;95934.88;;;17.98;55.84
1401;BME280;46518;48.842;8.926;2023-03-13T12:41:26;95929.44;;;18.16;57.95
1401;BME280;46518;48.842;8.926;2023-03-13T12:43:55;95908.09;;;18.45;60.35
1401;BME280;46518;48.842;8.926;2023-03-13T12:46:37;95901.66;;;18.46;57.04
1401;BME280;46518;48.842;8.926;2023-03-13T12:52:26;95881.63;;;18.82;55.32
1401;BME280;46518;48.842;8.926;2023-03-13T12:55:22;95886.78;;;19.00;57.30
1401;BME280;46518;48.842;8.926;2023-03-13T12:58:09;95882.53;;;18.86;55.30
1401;BME280;46518;48.842;8.926;2023-03-13T13:00:40;95875.50;;;18.82;55.61
1401;BME280;46518;48.842;8.926;2023-03-13T13:03:20;95866.16;;;18.54;54.93
1401;BME280;46518;48.842;8.926;2023-03-13T13:05:58;95861.47;;;18.51;57.20
1401;BME280;46518;48.842;8.926;2023-03-13T13:08:32;95856.56;;;18.62;56.35
1401;BME280;46518;48.842;8.926;2023-03-13T13:17:22;95827.75;;;18.89;56.26
1401;BME280;46518;48.842;8.926;2023-03-13T13:19:54;95815.44;;;18.96;56.51
1401;BME280;46518;48.842;8.926;2023-03-13T13:22:46;95818.56;;;18.99;56.36
1401;BME280;46518;48.842;8.926;2023-03-13T13:25:33;95803.47;;;18.90;52.81
1401;BME280;46518;48.842;8.926;2023-03-13T13:28:23;95802.19;;;18.75;53.93
1401;BME280;46518;48.842;8.926;2023-03-13T13:30:55;95790.66;;;18.84;54.49
1401;BME280;46518;48.842;8.926;2023-03-13T13:33:35;95770.78;;;18.93;52.93
1401;BME280;46518;48.842;8.926;2023-03-13T13:36:30;95775.81;;;19.20;51.56
1401;BME280;46518;48.842;8.926;2023-03-13T13:39:31;95767.47;;;19.09;50.26
1401;BME280;46518;48.842;8.926;2023-03-13T13:42:36;95757.47;;;19.06;51.53
1401;BME280;46518;48.842;8.926;2023-03-13T13:45:21;95756.91;;;18.88;51.91
1401;BME280;46518;48.842;8.926;2023-03-13T13:48:14;95758.63;;;18.71;50.54
1401;BME280;46518;48.842;8.926;2023-03-13T13:51:19;95753.91;;;18.89;50.34
1401;BME280;46518;48.842;8.926;2023-03-13T13:53:52;95742.53;;;18.68;50.98
1401;BME280;46518;48.842;8.926;2023-03-13T13:56:31;95745.88;;;18.65;51.62
1401;BME280;46518;48.842;8.926;2023-03-13T13:59:10;95744.97;;;18.73;52.63
1401;BME280;46518;48.842;8.926;2023-03-13T14:01:43;95741.56;;;19.09;50.68
1401;BME280;46518;48.842;8.926;2023-03-13T14:04:15;95734.25;;;19.18;51.88